sensor_id;sensor_type;location;lat;lon;timestamp;P1;durP1;ratioP1;P2;durP2;ratioP2
60076;SDS011;45950;45.208;20.374;2024-01-25T00:00:09;9.40;;;5.50;;
60076;SDS011;45950;45.208;20.374;2024-01-25T00:02:35;9.63;;;5.38;;
60076;SDS011;45950;45.208;20.374;2024-01-25T00:05:04;12.05;;;6.32;;
60076;SDS011;45950;45.208;20.374;2024-01-25T00:07:31;11.82;;;6.93;;
60076;SDS011;45950;45.208;20.374;2024-01-25T00:09:57;10.23;;;5.90;;
60076;SDS011;45950;45.208;20.374;2024-01-25T00:12:24;9.57;;;5.40;;
60076;SDS011;45950;45.208;20.374;2024-01-25T00:14:50;10.32;;;6.20;;
60076;SDS011;45950;45.208;20.374;2024-01-25T00:17:17;13.75;;;6.93;;
60076;SDS011;45950;45.208;20.374;2024-01-25T00:19:44;11.73;;;6.53;;
60076;SDS011;45950;45.208;20.374;2024-01-25T00:22:12;10.60;;;5.88;;
60076;SDS011;45950;45.208;20.374;2024-01-25T00:24:39;12.45;;;6.57;;
60076;SDS011;45950;45.208;20.374;2024-01-25T00:27:05;9.70;;;5.85;;
60076;SDS011;45950;45.208;20.374;2024-01-25T00:29:32;10.93;;;6.40;;
60076;SDS011;45950;45.208;20.374;2024-01-25T00:32:00;11.95;;;6.88;;
60076;SDS011;45950;45.208;20.374;2024-01-25T00:34:27;11.93;;;7.03;;
60076;SDS011;45950;45.208;20.374;2024-01-25T00:36:54;12.38;;;6.82;;
60076;SDS011;45950;45.208;20.374;2024-01-25T00:39:22;12.00;;;6.97;;
60076;SDS011;45950;45.208;20.374;2024-01-25T00:41:50;11.65;;;6.05;;
60076;SDS011;45950;45.208;20.374;2024-01-25T00:44:17;10.45;;;5.93;;
60076;SDS011;45950;45.208;20.374;2024-01-25T00:46:44;11.70;;;6.55;;
60076;SDS011;45950;45.208;20.374;2024-01-25T00:49:12;14.80;;;7.07;;
60076;SDS011;45950;45.208;20.374;2024-01-25T00:51:39;10.68;;;5.95;;
60076;SDS011;45950;45.208;20.374;2024-01-25T00:54:08;11.45;;;6.40;;
60076;SDS011;45950;45.208;20.374;2024-01-25T00:56:37;12.13;;;6.68;;
60076;SDS011;45950;45.208;20.374;2024-01-25T00:59:04;13.93;;;6.88;;
60076;SDS011;45950;45.208;20.374;2024-01-25T01:01:31;13.82;;;7.80;;
60076;SDS011;45950;45.208;20.374;2024-01-25T01:03:58;10.80;;;5.72;;
60076;SDS011;45950;45.208;20.374;2024-01-25T01:06:25;12.88;;;6.97;;
60076;SDS011;45950;45.208;20.374;2024-01-25T01:08:52;12.80;;;6.75;;
60076;SDS011;45950;45.208;20.374;2024-01-25T01:11:19;12.57;;;6.70;;
60076;SDS011;45950;45.208;20.374;2024-01-25T01:13:47;15.55;;;7.80;;
60076;SDS011;45950;45.208;20.374;2024-01-25T01:16:14;17.30;;;9.20;;
60076;SDS011;45950;45.208;20.374;2024-01-25T01:18:40;12.90;;;7.35;;
60076;SDS011;45950;45.208;20.374;2024-01-25T01:21:07;12.75;;;7.85;;
60076;SDS011;45950;45.208;20.374;2024-01-25T01:23:33;13.18;;;7.18;;
60076;SDS011;45950;45.208;20.374;2024-01-25T01:26:00;13.02;;;7.53;;
60076;SDS011;45950;45.208;20.374;2024-01-25T01:28:27;12.60;;;6.60;;
60076;SDS011;45950;45.208;20.374;2024-01-25T01:30:55;12.82;;;7.22;;
60076;SDS011;45950;45.208;20.374;2024-01-25T01:33:37;12.30;;;6.53;;
60076;SDS011;45950;45.208;20.374;2024-01-25T01:36:03;11.57;;;6.43;;
60076;SDS011;45950;45.208;20.374;2024-01-25T01:38:30;12.95;;;6.22;;
60076;SDS011;45950;45.208;20.374;2024-01-25T01:40:57;12.45;;;5.82;;
60076;SDS011;45950;45.208;20.374;2024-01-25T01:43:23;11.02;;;6.22;;
60076;SDS011;45950;45.208;20.374;2024-01-25T01:45:50;11.35;;;5.60;;
60076;SDS011;45950;45.208;20.374;2024-01-25T01:51:07;13.95;;;6.35;;
60076;SDS011;45950;45.208;20.374;2024-01-25T01:53:35;13.60;;;6.22;;
60076;SDS011;45950;45.208;20.374;2024-01-25T01:56:02;12.60;;;6.18;;
60076;SDS011;45950;45.208;20.374;2024-01-25T01:58:29;12.95;;;6.40;;
60076;SDS011;45950;45.208;20.374;2024-01-25T02:00:57;14.35;;;6.10;;
60076;SDS011;45950;45.208;20.374;2024-01-25T02:03:25;16.10;;;6.43;;
60076;SDS011;45950;45.208;20.374;2024-01-25T02:05:51;13.75;;;6.55;;
60076;SDS011;45950;45.208;20.374;2024-01-25T02:08:20;16.33;;;6.72;;
60076;SDS011;45950;45.208;20.374;2024-01-25T02:13:38;11.45;;;5.40;;
60076;SDS011;45950;45.208;20.374;2024-01-25T02:16:05;12.00;;;5.75;;
60076;SDS011;45950;45.208;20.374;2024-01-25T02:18:41;12.50;;;6.30;;
60076;SDS011;45950;45.208;20.374;2024-01-25T02:21:07;13.07;;;7.55;;
60076;SDS011;45950;45.208;20.374;2024-01-25T02:23:35;16.00;;;7.25;;
60076;SDS011;45950;45.208;20.374;2024-01-25T02:26:02;17.17;;;7.30;;
60076;SDS011;45950;45.208;20.374;2024-01-25T02:28:45;16.67;;;6.85;;
60076;SDS011;45950;45.208;20.374;2024-01-25T02:31:11;15.30;;;8.00;;
60076;SDS011;45950;45.208;20.374;2024-01-25T02:33:38;13.05;;;6.47;;
60076;SDS011;45950;45.208;20.374;2024-01-25T02:36:05;18.92;;;7.45;;
60076;SDS011;45950;45.208;20.374;2024-01-25T02:38:32;14.80;;;7.30;;
60076;SDS011;45950;45.208;20.374;2024-01-25T02:41:00;15.93;;;8.82;;
60076;SDS011;45950;45.208;20.374;2024-01-25T02:46:20;18.77;;;7.80;;
60076;SDS011;45950;45.208;20.374;2024-01-25T02:48:45;15.38;;;6.85;;
60076;SDS011;45950;45.208;20.374;2024-01-25T02:51:12;13.90;;;7.40;;
60076;SDS011;45950;45.208;20.374;2024-01-25T02:53:39;14.57;;;7.38;;
60076;SDS011;45950;45.208;20.374;2024-01-25T02:56:07;13.70;;;7.22;;
60076;SDS011;45950;45.208;20.374;2024-01-25T02:58:34;17.67;;;8.25;;
60076;SDS011;45950;45.208;20.374;2024-01-25T03:01:01;17.08;;;8.10;;
60076;SDS011;45950;45.208;20.374;2024-01-25T03:03:26;16.60;;;7.70;;
60076;SDS011;45950;45.208;20.374;2024-01-25T03:08:42;36.00;;;25.13;;
60076;SDS011;45950;45.208;20.374;2024-01-25T03:11:10;87.97;;;40.50;;
60076;SDS011;45950;45.208;20.374;2024-01-25T03:13:37;42.25;;;21.52;;
60076;SDS011;45950;45.208;20.374;2024-01-25T03:16:04;30.67;;;16.10;;
60076;SDS011;45950;45.208;20.374;2024-01-25T03:18:30;19.88;;;12.00;;
60076;SDS011;45950;45.208;20.374;2024-01-25T03:20:57;20.83;;;13.32;;
60076;SDS011;45950;45.208;20.374;2024-01-25T03:23:23;14.88;;;11.73;;
60076;SDS011;45950;45.208;20.374;2024-01-25T03:25:50;19.58;;;10.85;;
60076;SDS011;45950;45.208;20.374;2024-01-25T03:28:18;16.17;;;8.95;;
60076;SDS011;45950;45.208;20.374;2024-01-25T03:30:45;14.98;;;9.35;;
60076;SDS011;45950;45.208;20.374;2024-01-25T03:33:16;15.05;;;9.13;;
60076;SDS011;45950;45.208;20.374;2024-01-25T03:35:43;30.83;;;18.17;;
60076;SDS011;45950;45.208;20.374;2024-01-25T03:38:09;24.13;;;16.02;;
60076;SDS011;45950;45.208;20.374;2024-01-25T03:40:41;18.65;;;11.77;;
60076;SDS011;45950;45.208;20.374;2024-01-25T03:43:07;21.67;;;11.95;;
60076;SDS011;45950;45.208;20.374;2024-01-25T03:45:35;16.63;;;10.07;;
60076;SDS011;45950;45.208;20.374;2024-01-25T03:48:02;19.48;;;10.05;;
60076;SDS011;45950;45.208;20.374;2024-01-25T03:50:29;16.58;;;10.18;;
60076;SDS011;45950;45.208;20.374;2024-01-25T03:52:55;18.08;;;9.73;;
60076;SDS011;45950;45.208;20.374;2024-01-25T03:55:22;23.27;;;13.23;;
60076;SDS011;45950;45.208;20.374;2024-01-25T03:57:48;26.33;;;15.15;;
60076;SDS011;45950;45.208;20.374;2024-01-25T04:00:15;21.88;;;14.25;;
60076;SDS011;45950;45.208;20.374;2024-01-25T04:02:43;17.80;;;10.40;;
60076;SDS011;45950;45.208;20.374;2024-01-25T04:05:10;15.90;;;10.30;;
60076;SDS011;45950;45.208;20.374;2024-01-25T04:07:37;13.95;;;9.13;;
60076;SDS011;45950;45.208;20.374;2024-01-25T04:10:03;22.23;;;12.30;;
60076;SDS011;45950;45.208;20.374;2024-01-25T04:12:30;17.85;;;10.52;;
60076;SDS011;45950;45.208;20.374;2024-01-25T04:15:10;16.90;;;9.10;;
60076;SDS011;45950;45.208;20.374;2024-01-25T04:17:36;13.02;;;7.75;;
60076;SDS011;45950;45.208;20.374;2024-01-25T04:20:05;15.88;;;6.68;;
60076;SDS011;45950;45.208;20.374;2024-01-25T04:25:19;14.93;;;6.88;;
60076;SDS011;45950;45.208;20.374;2024-01-25T04:27:45;12.60;;;6.80;;
60076;SDS011;45950;45.208;20.374;2024-01-25T04:30:12;18.73;;;9.82;;
60076;SDS011;45950;45.208;20.374;2024-01-25T04:32:39;44.47;;;21.63;;
60076;SDS011;45950;45.208;20.374;2024-01-25T04:35:07;49.05;;;20.55;;
60076;SDS011;45950;45.208;20.374;2024-01-25T04:37:34;62.55;;;25.73;;
60076;SDS011;45950;45.208;20.374;2024-01-25T04:40:01;65.35;;;26.70;;
60076;SDS011;45950;45.208;20.374;2024-01-25T04:42:28;84.53;;;27.15;;
60076;SDS011;45950;45.208;20.374;2024-01-25T04:44:54;62.83;;;24.10;;
60076;SDS011;45950;45.208;20.374;2024-01-25T04:47:21;23.98;;;10.65;;
60076;SDS011;45950;45.208;20.374;2024-01-25T04:49:48;18.60;;;7.07;;
60076;SDS011;45950;45.208;20.374;2024-01-25T04:52:16;14.30;;;6.20;;
60076;SDS011;45950;45.208;20.374;2024-01-25T04:54:43;12.18;;;6.18;;
60076;SDS011;45950;45.208;20.374;2024-01-25T04:57:21;15.27;;;7.63;;
60076;SDS011;45950;45.208;20.374;2024-01-25T04:59:48;14.63;;;6.50;;
60076;SDS011;45950;45.208;20.374;2024-01-25T05:02:15;15.70;;;6.65;;
60076;SDS011;45950;45.208;20.374;2024-01-25T05:04:41;28.83;;;14.13;;
60076;SDS011;45950;45.208;20.374;2024-01-25T05:07:08;39.50;;;18.75;;
60076;SDS011;45950;45.208;20.374;2024-01-25T05:09:36;58.67;;;24.88;;
60076;SDS011;45950;45.208;20.374;2024-01-25T05:12:02;46.15;;;18.17;;
60076;SDS011;45950;45.208;20.374;2024-01-25T05:14:29;39.60;;;20.20;;
60076;SDS011;45950;45.208;20.374;2024-01-25T05:16:56;36.10;;;18.38;;
60076;SDS011;45950;45.208;20.374;2024-01-25T05:19:23;17.00;;;9.52;;
60076;SDS011;45950;45.208;20.374;2024-01-25T05:21:50;20.15;;;8.50;;
60076;SDS011;45950;45.208;20.374;2024-01-25T05:24:17;15.38;;;7.97;;
60076;SDS011;45950;45.208;20.374;2024-01-25T05:26:45;19.75;;;8.02;;
60076;SDS011;45950;45.208;20.374;2024-01-25T05:29:11;17.85;;;8.57;;
60076;SDS011;45950;45.208;20.374;2024-01-25T05:31:38;17.05;;;8.63;;
60076;SDS011;45950;45.208;20.374;2024-01-25T05:34:05;19.63;;;8.43;;
60076;SDS011;45950;45.208;20.374;2024-01-25T05:36:31;16.83;;;8.07;;
60076;SDS011;45950;45.208;20.374;2024-01-25T05:38:58;19.95;;;9.02;;
60076;SDS011;45950;45.208;20.374;2024-01-25T05:41:24;17.75;;;9.15;;
60076;SDS011;45950;45.208;20.374;2024-01-25T05:43:52;18.15;;;9.27;;
60076;SDS011;45950;45.208;20.374;2024-01-25T05:46:19;15.93;;;8.68;;
60076;SDS011;45950;45.208;20.374;2024-01-25T05:48:46;20.77;;;9.05;;
60076;SDS011;45950;45.208;20.374;2024-01-25T05:51:13;17.38;;;8.07;;
60076;SDS011;45950;45.208;20.374;2024-01-25T05:53:40;15.85;;;9.13;;
60076;SDS011;45950;45.208;20.374;2024-01-25T05:56:06;20.20;;;10.23;;
60076;SDS011;45950;45.208;20.374;2024-01-25T05:58:33;24.05;;;8.57;;
60076;SDS011;45950;45.208;20.374;2024-01-25T06:01:01;18.92;;;7.80;;
60076;SDS011;45950;45.208;20.374;2024-01-25T06:03:37;20.13;;;9.05;;
60076;SDS011;45950;45.208;20.374;2024-01-25T06:06:03;16.63;;;7.72;;
60076;SDS011;45950;45.208;20.374;2024-01-25T06:08:38;17.40;;;7.45;;
60076;SDS011;45950;45.208;20.374;2024-01-25T06:11:04;14.85;;;7.10;;
60076;SDS011;45950;45.208;20.374;2024-01-25T06:13:44;15.93;;;7.75;;
60076;SDS011;45950;45.208;20.374;2024-01-25T06:16:12;14.70;;;6.97;;
60076;SDS011;45950;45.208;20.374;2024-01-25T06:18:39;13.13;;;7.55;;
60076;SDS011;45950;45.208;20.374;2024-01-25T06:21:05;19.17;;;6.80;;
60076;SDS011;45950;45.208;20.374;2024-01-25T06:23:32;14.52;;;6.75;;
60076;SDS011;45950;45.208;20.374;2024-01-25T06:25:58;13.05;;;6.47;;
60076;SDS011;45950;45.208;20.374;2024-01-25T06:28:34;12.95;;;5.65;;
60076;SDS011;45950;45.208;20.374;2024-01-25T06:31:01;12.55;;;6.18;;
60076;SDS011;45950;45.208;20.374;2024-01-25T06:33:36;14.50;;;5.88;;
60076;SDS011;45950;45.208;20.374;2024-01-25T06:36:03;18.85;;;6.18;;
60076;SDS011;45950;45.208;20.374;2024-01-25T06:38:38;15.70;;;6.50;;
60076;SDS011;45950;45.208;20.374;2024-01-25T06:41:05;10.63;;;5.68;;
60076;SDS011;45950;45.208;20.374;2024-01-25T06:43:31;12.15;;;6.18;;
60076;SDS011;45950;45.208;20.374;2024-01-25T06:45:58;11.88;;;5.65;;
60076;SDS011;45950;45.208;20.374;2024-01-25T06:48:25;14.45;;;6.57;;
60076;SDS011;45950;45.208;20.374;2024-01-25T06:51:08;11.57;;;6.55;;
60076;SDS011;45950;45.208;20.374;2024-01-25T06:53:35;15.48;;;6.07;;
60076;SDS011;45950;45.208;20.374;2024-01-25T06:56:01;13.02;;;5.85;;
60076;SDS011;45950;45.208;20.374;2024-01-25T06:58:32;19.70;;;9.52;;
60076;SDS011;45950;45.208;20.374;2024-01-25T07:00:59;42.70;;;17.88;;
60076;SDS011;45950;45.208;20.374;2024-01-25T07:03:25;38.53;;;15.63;;
60076;SDS011;45950;45.208;20.374;2024-01-25T07:08:41;13.70;;;5.65;;
60076;SDS011;45950;45.208;20.374;2024-01-25T07:11:17;10.60;;;5.65;;
60076;SDS011;45950;45.208;20.374;2024-01-25T07:13:44;8.43;;;5.10;;
60076;SDS011;45950;45.208;20.374;2024-01-25T07:16:11;8.68;;;4.85;;
60076;SDS011;45950;45.208;20.374;2024-01-25T07:18:54;10.93;;;5.93;;
60076;SDS011;45950;45.208;20.374;2024-01-25T07:21:22;13.05;;;6.28;;
60076;SDS011;45950;45.208;20.374;2024-01-25T07:23:50;12.38;;;5.68;;
60076;SDS011;45950;45.208;20.374;2024-01-25T07:26:35;15.27;;;6.45;;
60076;SDS011;45950;45.208;20.374;2024-01-25T07:29:02;10.30;;;5.68;;
60076;SDS011;45950;45.208;20.374;2024-01-25T07:31:29;16.33;;;6.57;;
60076;SDS011;45950;45.208;20.374;2024-01-25T07:34:11;14.40;;;6.55;;
60076;SDS011;45950;45.208;20.374;2024-01-25T07:36:38;15.85;;;6.75;;
60076;SDS011;45950;45.208;20.374;2024-01-25T07:39:06;16.33;;;7.25;;
60076;SDS011;45950;45.208;20.374;2024-01-25T07:41:33;21.50;;;9.77;;
60076;SDS011;45950;45.208;20.374;2024-01-25T07:44:00;23.90;;;11.25;;
60076;SDS011;45950;45.208;20.374;2024-01-25T07:46:26;32.17;;;16.88;;
60076;SDS011;45950;45.208;20.374;2024-01-25T07:48:53;43.15;;;20.50;;
60076;SDS011;45950;45.208;20.374;2024-01-25T07:51:20;23.85;;;10.80;;
60076;SDS011;45950;45.208;20.374;2024-01-25T07:53:46;50.45;;;19.40;;
60076;SDS011;45950;45.208;20.374;2024-01-25T07:56:23;17.35;;;9.40;;
60076;SDS011;45950;45.208;20.374;2024-01-25T07:58:49;13.27;;;7.53;;
60076;SDS011;45950;45.208;20.374;2024-01-25T08:01:17;16.02;;;7.65;;
60076;SDS011;45950;45.208;20.374;2024-01-25T08:03:53;16.33;;;7.88;;
60076;SDS011;45950;45.208;20.374;2024-01-25T08:06:19;13.73;;;7.95;;
60076;SDS011;45950;45.208;20.374;2024-01-25T08:08:46;13.32;;;7.38;;
60076;SDS011;45950;45.208;20.374;2024-01-25T08:11:12;16.77;;;7.22;;
60076;SDS011;45950;45.208;20.374;2024-01-25T08:13:47;15.23;;;7.57;;
60076;SDS011;45950;45.208;20.374;2024-01-25T08:16:14;12.07;;;7.03;;
60076;SDS011;45950;45.208;20.374;2024-01-25T08:18:44;18.15;;;8.20;;
60076;SDS011;45950;45.208;20.374;2024-01-25T08:21:11;16.80;;;7.20;;
60076;SDS011;45950;45.208;20.374;2024-01-25T08:23:37;16.98;;;8.18;;
60076;SDS011;45950;45.208;20.374;2024-01-25T08:26:04;19.52;;;8.45;;
60076;SDS011;45950;45.208;20.374;2024-01-25T08:28:34;18.38;;;9.05;;
60076;SDS011;45950;45.208;20.374;2024-01-25T08:31:02;14.95;;;7.57;;
60076;SDS011;45950;45.208;20.374;2024-01-25T08:33:30;14.20;;;8.88;;
60076;SDS011;45950;45.208;20.374;2024-01-25T08:35:56;14.68;;;8.90;;
60076;SDS011;45950;45.208;20.374;2024-01-25T08:38:23;14.35;;;7.90;;
60076;SDS011;45950;45.208;20.374;2024-01-25T08:40:49;16.63;;;8.05;;
60076;SDS011;45950;45.208;20.374;2024-01-25T08:43:16;16.27;;;7.72;;
60076;SDS011;45950;45.208;20.374;2024-01-25T08:45:43;35.47;;;17.52;;
60076;SDS011;45950;45.208;20.374;2024-01-25T08:48:11;34.08;;;22.75;;
60076;SDS011;45950;45.208;20.374;2024-01-25T08:50:38;18.77;;;11.27;;
60076;SDS011;45950;45.208;20.374;2024-01-25T08:53:05;18.10;;;10.43;;
60076;SDS011;45950;45.208;20.374;2024-01-25T08:55:31;17.15;;;9.07;;
60076;SDS011;45950;45.208;20.374;2024-01-25T08:57:58;14.38;;;8.13;;
60076;SDS011;45950;45.208;20.374;2024-01-25T09:00:25;16.40;;;8.02;;
60076;SDS011;45950;45.208;20.374;2024-01-25T09:02:52;17.70;;;10.57;;
60076;SDS011;45950;45.208;20.374;2024-01-25T09:05:20;16.80;;;7.50;;
60076;SDS011;45950;45.208;20.374;2024-01-25T09:07:47;20.25;;;11.48;;
60076;SDS011;45950;45.208;20.374;2024-01-25T09:10:15;19.73;;;10.20;;
60076;SDS011;45950;45.208;20.374;2024-01-25T09:12:42;15.95;;;7.57;;
60076;SDS011;45950;45.208;20.374;2024-01-25T09:15:09;19.08;;;8.88;;
60076;SDS011;45950;45.208;20.374;2024-01-25T09:17:36;22.02;;;14.10;;
60076;SDS011;45950;45.208;20.374;2024-01-25T09:20:03;19.58;;;12.77;;
60076;SDS011;45950;45.208;20.374;2024-01-25T09:22:31;19.92;;;11.35;;
60076;SDS011;45950;45.208;20.374;2024-01-25T09:24:57;24.75;;;11.52;;
60076;SDS011;45950;45.208;20.374;2024-01-25T09:27:24;29.70;;;17.48;;
60076;SDS011;45950;45.208;20.374;2024-01-25T09:29:50;33.25;;;17.67;;
60076;SDS011;45950;45.208;20.374;2024-01-25T09:32:17;22.55;;;12.35;;
60076;SDS011;45950;45.208;20.374;2024-01-25T09:34:45;24.55;;;14.85;;
60076;SDS011;45950;45.208;20.374;2024-01-25T09:37:12;25.10;;;13.35;;
60076;SDS011;45950;45.208;20.374;2024-01-25T09:39:41;20.92;;;12.13;;
60076;SDS011;45950;45.208;20.374;2024-01-25T09:42:08;27.95;;;14.45;;
60076;SDS011;45950;45.208;20.374;2024-01-25T09:44:37;23.75;;;13.90;;
60076;SDS011;45950;45.208;20.374;2024-01-25T09:47:04;25.98;;;14.52;;
60076;SDS011;45950;45.208;20.374;2024-01-25T09:49:37;30.17;;;14.65;;
60076;SDS011;45950;45.208;20.374;2024-01-25T09:52:04;26.27;;;13.98;;
60076;SDS011;45950;45.208;20.374;2024-01-25T09:54:32;19.48;;;11.90;;
60076;SDS011;45950;45.208;20.374;2024-01-25T09:57:08;23.50;;;12.52;;
60076;SDS011;45950;45.208;20.374;2024-01-25T09:59:38;22.25;;;12.75;;
60076;SDS011;45950;45.208;20.374;2024-01-25T10:02:06;21.80;;;13.70;;
60076;SDS011;45950;45.208;20.374;2024-01-25T10:07:40;27.23;;;14.88;;
60076;SDS011;45950;45.208;20.374;2024-01-25T10:10:07;20.17;;;12.23;;
60076;SDS011;45950;45.208;20.374;2024-01-25T10:12:36;28.80;;;15.15;;
60076;SDS011;45950;45.208;20.374;2024-01-25T10:15:08;25.25;;;14.05;;
60076;SDS011;45950;45.208;20.374;2024-01-25T10:17:35;22.40;;;11.82;;
60076;SDS011;45950;45.208;20.374;2024-01-25T10:20:04;22.00;;;13.02;;
60076;SDS011;45950;45.208;20.374;2024-01-25T10:22:32;28.17;;;13.68;;
60076;SDS011;45950;45.208;20.374;2024-01-25T10:24:59;22.35;;;12.05;;
60076;SDS011;45950;45.208;20.374;2024-01-25T10:27:26;20.90;;;9.32;;
60076;SDS011;45950;45.208;20.374;2024-01-25T10:29:59;18.25;;;9.95;;
60076;SDS011;45950;45.208;20.374;2024-01-25T10:32:26;18.80;;;10.10;;
60076;SDS011;45950;45.208;20.374;2024-01-25T10:34:53;16.15;;;9.77;;
60076;SDS011;45950;45.208;20.374;2024-01-25T10:37:20;21.50;;;12.15;;
60076;SDS011;45950;45.208;20.374;2024-01-25T10:39:47;25.85;;;12.15;;
60076;SDS011;45950;45.208;20.374;2024-01-25T10:42:19;20.92;;;10.52;;
60076;SDS011;45950;45.208;20.374;2024-01-25T10:44:46;14.82;;;7.78;;
60076;SDS011;45950;45.208;20.374;2024-01-25T10:47:14;15.35;;;8.63;;
60076;SDS011;45950;45.208;20.374;2024-01-25T10:49:41;19.67;;;9.50;;
60076;SDS011;45950;45.208;20.374;2024-01-25T10:52:07;20.30;;;10.93;;
60076;SDS011;45950;45.208;20.374;2024-01-25T10:54:35;15.68;;;8.80;;
60076;SDS011;45950;45.208;20.374;2024-01-25T10:57:02;20.63;;;11.10;;
60076;SDS011;45950;45.208;20.374;2024-01-25T10:59:31;15.70;;;7.88;;
60076;SDS011;45950;45.208;20.374;2024-01-25T11:01:58;17.30;;;8.50;;
60076;SDS011;45950;45.208;20.374;2024-01-25T11:04:29;17.55;;;8.63;;
60076;SDS011;45950;45.208;20.374;2024-01-25T11:07:03;18.33;;;8.15;;
60076;SDS011;45950;45.208;20.374;2024-01-25T11:09:42;18.17;;;8.50;;
60076;SDS011;45950;45.208;20.374;2024-01-25T11:12:11;15.27;;;9.07;;
60076;SDS011;45950;45.208;20.374;2024-01-25T11:14:38;14.48;;;8.52;;
60076;SDS011;45950;45.208;20.374;2024-01-25T11:17:14;18.67;;;8.35;;
60076;SDS011;45950;45.208;20.374;2024-01-25T11:19:43;15.63;;;6.95;;
60076;SDS011;45950;45.208;20.374;2024-01-25T11:22:10;16.95;;;6.75;;
60076;SDS011;45950;45.208;20.374;2024-01-25T11:24:40;12.05;;;4.72;;
60076;SDS011;45950;45.208;20.374;2024-01-25T11:27:07;14.13;;;5.72;;
60076;SDS011;45950;45.208;20.374;2024-01-25T11:29:35;11.25;;;5.53;;
60076;SDS011;45950;45.208;20.374;2024-01-25T11:32:01;12.40;;;5.38;;
60076;SDS011;45950;45.208;20.374;2024-01-25T11:34:29;16.83;;;5.47;;
60076;SDS011;45950;45.208;20.374;2024-01-25T11:36:58;19.00;;;9.48;;
60076;SDS011;45950;45.208;20.374;2024-01-25T11:39:24;41.00;;;20.50;;
60076;SDS011;45950;45.208;20.374;2024-01-25T11:41:51;17.33;;;7.93;;
60076;SDS011;45950;45.208;20.374;2024-01-25T11:44:18;20.67;;;6.63;;
60076;SDS011;45950;45.208;20.374;2024-01-25T11:46:48;12.45;;;6.13;;
60076;SDS011;45950;45.208;20.374;2024-01-25T11:49:18;16.63;;;5.88;;
60076;SDS011;45950;45.208;20.374;2024-01-25T11:51:45;11.35;;;4.75;;
60076;SDS011;45950;45.208;20.374;2024-01-25T11:54:13;12.82;;;5.38;;
60076;SDS011;45950;45.208;20.374;2024-01-25T11:56:40;11.65;;;4.60;;
60076;SDS011;45950;45.208;20.374;2024-01-25T11:59:07;10.82;;;4.97;;
60076;SDS011;45950;45.208;20.374;2024-01-25T12:01:34;15.10;;;5.43;;
60076;SDS011;45950;45.208;20.374;2024-01-25T12:04:00;13.18;;;4.30;;
60076;SDS011;45950;45.208;20.374;2024-01-25T12:06:27;10.43;;;3.95;;
60076;SDS011;45950;45.208;20.374;2024-01-25T12:08:54;9.45;;;3.90;;
60076;SDS011;45950;45.208;20.374;2024-01-25T12:11:23;9.45;;;3.80;;
60076;SDS011;45950;45.208;20.374;2024-01-25T12:13:49;11.00;;;2.85;;
60076;SDS011;45950;45.208;20.374;2024-01-25T12:16:16;8.25;;;4.05;;
60076;SDS011;45950;45.208;20.374;2024-01-25T12:18:43;12.00;;;4.35;;
60076;SDS011;45950;45.208;20.374;2024-01-25T12:21:09;10.43;;;3.60;;
60076;SDS011;45950;45.208;20.374;2024-01-25T12:23:36;12.10;;;3.40;;
60076;SDS011;45950;45.208;20.374;2024-01-25T12:26:11;10.38;;;3.03;;
60076;SDS011;45950;45.208;20.374;2024-01-25T12:31:05;8.82;;;2.78;;
60076;SDS011;45950;45.208;20.374;2024-01-25T12:33:34;10.95;;;2.55;;
60076;SDS011;45950;45.208;20.374;2024-01-25T12:36:01;12.25;;;4.93;;
60076;SDS011;45950;45.208;20.374;2024-01-25T12:38:28;8.07;;;4.35;;
60076;SDS011;45950;45.208;20.374;2024-01-25T12:41:13;8.43;;;2.42;;
60076;SDS011;45950;45.208;20.374;2024-01-25T12:43:39;7.45;;;2.85;;
60076;SDS011;45950;45.208;20.374;2024-01-25T12:46:08;9.45;;;2.35;;
60076;SDS011;45950;45.208;20.374;2024-01-25T12:48:36;10.63;;;2.90;;
60076;SDS011;45950;45.208;20.374;2024-01-25T12:51:03;9.52;;;2.63;;
60076;SDS011;45950;45.208;20.374;2024-01-25T12:53:30;7.00;;;2.47;;
60076;SDS011;45950;45.208;20.374;2024-01-25T12:55:56;8.40;;;3.15;;
60076;SDS011;45950;45.208;20.374;2024-01-25T12:58:23;8.23;;;2.70;;
60076;SDS011;45950;45.208;20.374;2024-01-25T13:00:49;7.85;;;2.92;;
60076;SDS011;45950;45.208;20.374;2024-01-25T13:03:17;10.52;;;2.72;;
60076;SDS011;45950;45.208;20.374;2024-01-25T13:05:44;7.20;;;2.42;;
60076;SDS011;45950;45.208;20.374;2024-01-25T13:08:11;7.50;;;3.03;;
60076;SDS011;45950;45.208;20.374;2024-01-25T13:10:37;8.90;;;2.80;;
60076;SDS011;45950;45.208;20.374;2024-01-25T13:13:04;10.25;;;4.47;;
60076;SDS011;45950;45.208;20.374;2024-01-25T13:15:30;8.93;;;3.45;;
60076;SDS011;45950;45.208;20.374;2024-01-25T13:17:57;6.78;;;2.30;;
60076;SDS011;45950;45.208;20.374;2024-01-25T13:20:27;4.70;;;2.00;;
60076;SDS011;45950;45.208;20.374;2024-01-25T13:22:54;7.47;;;2.35;;
60076;SDS011;45950;45.208;20.374;2024-01-25T13:25:20;7.35;;;2.53;;
60076;SDS011;45950;45.208;20.374;2024-01-25T13:27:47;7.93;;;2.25;;
60076;SDS011;45950;45.208;20.374;2024-01-25T13:30:14;5.07;;;1.90;;
60076;SDS011;45950;45.208;20.374;2024-01-25T13:32:40;8.30;;;2.95;;
60076;SDS011;45950;45.208;20.374;2024-01-25T13:35:08;7.30;;;2.20;;
60076;SDS011;45950;45.208;20.374;2024-01-25T13:37:36;8.40;;;3.05;;
60076;SDS011;45950;45.208;20.374;2024-01-25T13:40:04;10.15;;;2.83;;
60076;SDS011;45950;45.208;20.374;2024-01-25T13:42:31;6.03;;;2.15;;
60076;SDS011;45950;45.208;20.374;2024-01-25T13:44:57;5.13;;;2.40;;
60076;SDS011;45950;45.208;20.374;2024-01-25T13:47:24;10.15;;;2.75;;
60076;SDS011;45950;45.208;20.374;2024-01-25T13:49:50;8.25;;;2.53;;
60076;SDS011;45950;45.208;20.374;2024-01-25T13:52:17;8.30;;;2.55;;
60076;SDS011;45950;45.208;20.374;2024-01-25T13:54:46;9.80;;;2.40;;
60076;SDS011;45950;45.208;20.374;2024-01-25T13:57:14;7.72;;;2.17;;
60076;SDS011;45950;45.208;20.374;2024-01-25T13:59:41;7.18;;;2.10;;
60076;SDS011;45950;45.208;20.374;2024-01-25T14:02:08;9.68;;;2.47;;
60076;SDS011;45950;45.208;20.374;2024-01-25T14:04:34;12.75;;;2.47;;
60076;SDS011;45950;45.208;20.374;2024-01-25T14:07:01;12.05;;;3.22;;
60076;SDS011;45950;45.208;20.374;2024-01-25T14:09:28;8.38;;;2.58;;
60076;SDS011;45950;45.208;20.374;2024-01-25T14:11:57;8.15;;;2.13;;
60076;SDS011;45950;45.208;20.374;2024-01-25T14:14:23;13.68;;;2.80;;
60076;SDS011;45950;45.208;20.374;2024-01-25T14:16:50;9.95;;;2.67;;
60076;SDS011;45950;45.208;20.374;2024-01-25T14:19:19;11.25;;;3.40;;
60076;SDS011;45950;45.208;20.374;2024-01-25T14:21:46;8.95;;;2.63;;
60076;SDS011;45950;45.208;20.374;2024-01-25T14:24:14;6.70;;;2.40;;
60076;SDS011;45950;45.208;20.374;2024-01-25T14:29:30;11.52;;;4.00;;
60076;SDS011;45950;45.208;20.374;2024-01-25T14:31:58;9.35;;;2.45;;
60076;SDS011;45950;45.208;20.374;2024-01-25T14:34:25;5.95;;;2.00;;
60076;SDS011;45950;45.208;20.374;2024-01-25T14:36:52;12.63;;;2.97;;
60076;SDS011;45950;45.208;20.374;2024-01-25T14:39:19;9.55;;;2.97;;
60076;SDS011;45950;45.208;20.374;2024-01-25T14:41:45;9.70;;;3.08;;
60076;SDS011;45950;45.208;20.374;2024-01-25T14:44:12;8.00;;;3.15;;
60076;SDS011;45950;45.208;20.374;2024-01-25T14:46:40;10.70;;;2.60;;
60076;SDS011;45950;45.208;20.374;2024-01-25T14:49:07;7.50;;;2.45;;